GCFV/FUE METAR and TAF weather

Enter ICAO airport designator
Station Type Date Time Source
GCFV METAR 2018/07/21 11:30 UTC NOAA

GCFV 211130Z 03019KT 9999 FEW025 27/19 Q1016


Station Type Date Time Source
GCFV Decoded METAR 2018/07/21 11:30 UTC NOAA

Fuerteventura / Aeropuerto, Spain (GCFV) 28-27N 013-52W 30M
Jul 21, 2018 - 07:30 AM EDT / 2018.07.21 1130 UTC
Wind: from the NNE (030 degrees) at 22 MPH (19 KT):0
Visibility: greater than 7 mile(s):0
Sky conditions: mostly clear
Temperature: 80 F (27 C)
Dew Point: 66 F (19 C)
Relative Humidity: 61%
Pressure (altimeter): 30.00 in. Hg (1016 hPa)
ob: GCFV 211130Z 03019KT 9999 FEW025 27/19 Q1016
cycle: 11

Station Type Date Time Source
GCFV TAF 2018/07/21 09:29 UTC NOAA

TAF GCFV 210800Z 2109/2209 05017KT 9999 FEW020 TX27/2114Z TN20/2205Z PROB30
TEMPO 2109/2120 03017G27KT


Example: see airport list